S C — FGF7634 — position and weather

sailwx.info

Track history (hours):
 
Tides and Currents Weather Stations Pressure Air Temp Water Temp Dewpoint Dewpoint Depression Visibility Wind Speed Wind Dir Waves Ship Positions

S C

Last reported at 2015-Mar-31 04:33 UTC. Time now 2015-Mar-31 05:24 UTC.
Position N 49°29' E 000°07'.

; draft 1 m.

Type: Pilot. MMSI: 227001820.

Date/timePositionNaut miles runAvg speedWind from/ knotsBaromVisibWave heightAir tempDewpointWater temp
2015-Mar-31 04:33N 49°29' E 000°07'0 0.0
2015-Mar-31 03:33N 49°29' E 000°07'0 0.0
2015-Mar-31 02:33N 49°29' E 000°07'7 7.5
2015-Mar-31 01:34N 49°31' W 000°04'7 7.5
2015-Mar-31 00:33N 49°29' E 000°07'0 0.0
2015-Mar-30 23:33N 49°29' E 000°07'1 0.7
2015-Mar-30 22:33N 49°29' E 000°06'1 0.7
2015-Mar-30 21:33N 49°29' E 000°07'0 0.0
2015-Mar-30 20:33N 49°29' E 000°07'2 2.3
2015-Mar-30 19:33N 49°30' E 000°03'2 2.3
2015-Mar-30 18:33N 49°29' E 000°07'0 0.0
2015-Mar-30 17:33N 49°29' E 000°07'1 0.6
2015-Mar-30 16:33N 49°28' E 000°07'1 0.6
2015-Mar-30 15:33N 49°29' E 000°07'4 4.3
2015-Mar-30 14:33N 49°31' E 000°01'4 4.3
2015-Mar-30 13:33N 49°29' E 000°07'0 0.0
2015-Mar-30 12:33N 49°29' E 000°07'2 1.6
2015-Mar-30 11:33N 49°29' E 000°04'2 1.6
2015-Mar-30 10:33N 49°29' E 000°07'0 0.0
2015-Mar-30 09:33N 49°29' E 000°07'0 0.0
2015-Mar-30 08:33N 49°29' E 000°07'0 0.0
2015-Mar-30 07:33N 49°29' E 000°07'0 0.0
2015-Mar-30 06:33N 49°29' E 000°07'0 0.0
2015-Mar-30 05:33N 49°29' E 000°07'0 0.0
2015-Mar-30 04:33N 49°29' E 000°07'0 0.0
2015-Mar-30 03:33N 49°29' E 000°07'  
2015-Mar-27 14:25N 49°29' E 000°07'0 0.0
2015-Mar-27 13:33N 49°29' E 000°07'0 0.0
2015-Mar-27 12:33N 49°29' E 000°07'0 0.0
2015-Mar-27 11:33N 49°29' E 000°07'0 0.0
2015-Mar-27 10:33N 49°29' E 000°07'0 0.0
2015-Mar-27 09:33N 49°29' E 000°07'0 0.0
2015-Mar-27 08:33N 49°29' E 000°07'0 0.0
2015-Mar-27 07:33N 49°29' E 000°07'0 0.0
2015-Mar-26 15:34N 49°29' E 000°07'0 0.0
2015-Mar-26 14:33N 49°29' E 000°07'0 0.0
2015-Mar-26 13:33N 49°29' E 000°07'0 0.0
2015-Mar-26 12:34N 49°29' E 000°07'0 0.0
2015-Mar-26 11:34N 49°29' E 000°07'0 0.0
2015-Mar-26 10:34N 49°29' E 000°07'0 0.0
2015-Mar-26 09:34N 49°29' E 000°07'0 0.0
2015-Mar-26 08:34N 49°29' E 000°07'0 0.0
2015-Mar-26 07:33N 49°29' E 000°07'0 0.0
2015-Mar-25 15:34N 49°29' E 000°07'0 0.0
2015-Mar-25 14:33N 49°29' E 000°07'0 0.0
2015-Mar-25 13:33N 49°29' E 000°07'0 0.0
2015-Mar-24 12:33N 49°29' E 000°07'0 0.0
2015-Mar-24 11:33N 49°29' E 000°07'0 0.0
2015-Mar-24 10:33N 49°29' E 000°07'0 0.0
2015-Mar-24 09:33N 49°29' E 000°07'0 0.0
2015-Mar-24 08:33N 49°29' E 000°07'0 0.0
2015-Mar-24 07:33N 49°29' E 000°07'0 0.0
2015-Mar-23 16:11N 49°29' E 000°07'0 0.0
2015-Mar-23 15:34N 49°29' E 000°07'  
Track history (hours):
 
Tides and Currents Weather Stations Pressure Air Temp Water Temp Dewpoint Dewpoint Depression Visibility Wind Speed Wind Dir Waves Ship Positions

S C

Last reported at 2015-Mar-31 04:33 UTC. Time now 2015-Mar-31 05:24 UTC.
Position N 49°29' E 000°07'.

; draft 1 m.

Type: Pilot. MMSI: 227001820.

Date/timePositionNaut miles runAvg speedWind from/ knotsBaromVisibWave heightAir tempDewpointWater temp
2015-Mar-31 04:33N 49°29' E 000°07'0 0.0
2015-Mar-31 03:33N 49°29' E 000°07'0 0.0
2015-Mar-31 02:33N 49°29' E 000°07'7 7.5
2015-Mar-31 01:34N 49°31' W 000°04'7 7.5
2015-Mar-31 00:33N 49°29' E 000°07'0 0.0
2015-Mar-30 23:33N 49°29' E 000°07'1 0.7
2015-Mar-30 22:33N 49°29' E 000°06'1 0.7
2015-Mar-30 21:33N 49°29' E 000°07'0 0.0
2015-Mar-30 20:33N 49°29' E 000°07'2 2.3
2015-Mar-30 19:33N 49°30' E 000°03'2 2.3
2015-Mar-30 18:33N 49°29' E 000°07'0 0.0
2015-Mar-30 17:33N 49°29' E 000°07'1 0.6
2015-Mar-30 16:33N 49°28' E 000°07'1 0.6
2015-Mar-30 15:33N 49°29' E 000°07'4 4.3
2015-Mar-30 14:33N 49°31' E 000°01'4 4.3
2015-Mar-30 13:33N 49°29' E 000°07'0 0.0
2015-Mar-30 12:33N 49°29' E 000°07'2 1.6
2015-Mar-30 11:33N 49°29' E 000°04'2 1.6
2015-Mar-30 10:33N 49°29' E 000°07'0 0.0
2015-Mar-30 09:33N 49°29' E 000°07'0 0.0
2015-Mar-30 08:33N 49°29' E 000°07'0 0.0
2015-Mar-30 07:33N 49°29' E 000°07'0 0.0
2015-Mar-30 06:33N 49°29' E 000°07'0 0.0
2015-Mar-30 05:33N 49°29' E 000°07'0 0.0
2015-Mar-30 04:33N 49°29' E 000°07'0 0.0
2015-Mar-30 03:33N 49°29' E 000°07'  
2015-Mar-27 14:25N 49°29' E 000°07'0 0.0
2015-Mar-27 13:33N 49°29' E 000°07'0 0.0
2015-Mar-27 12:33N 49°29' E 000°07'0 0.0
2015-Mar-27 11:33N 49°29' E 000°07'0 0.0
2015-Mar-27 10:33N 49°29' E 000°07'0 0.0
2015-Mar-27 09:33N 49°29' E 000°07'0 0.0
2015-Mar-27 08:33N 49°29' E 000°07'0 0.0
2015-Mar-27 07:33N 49°29' E 000°07'0 0.0
2015-Mar-26 15:34N 49°29' E 000°07'0 0.0
2015-Mar-26 14:33N 49°29' E 000°07'0 0.0
2015-Mar-26 13:33N 49°29' E 000°07'0 0.0
2015-Mar-26 12:34N 49°29' E 000°07'0 0.0
2015-Mar-26 11:34N 49°29' E 000°07'0 0.0
2015-Mar-26 10:34N 49°29' E 000°07'0 0.0
2015-Mar-26 09:34N 49°29' E 000°07'0 0.0
2015-Mar-26 08:34N 49°29' E 000°07'0 0.0
2015-Mar-26 07:33N 49°29' E 000°07'0 0.0
2015-Mar-25 15:34N 49°29' E 000°07'0 0.0
2015-Mar-25 14:33N 49°29' E 000°07'0 0.0
2015-Mar-25 13:33N 49°29' E 000°07'0 0.0
2015-Mar-24 12:33N 49°29' E 000°07'0 0.0
2015-Mar-24 11:33N 49°29' E 000°07'0 0.0
2015-Mar-24 10:33N 49°29' E 000°07'0 0.0
2015-Mar-24 09:33N 49°29' E 000°07'0 0.0
2015-Mar-24 08:33N 49°29' E 000°07'0 0.0
2015-Mar-24 07:33N 49°29' E 000°07'0 0.0
2015-Mar-23 16:11N 49°29' E 000°07'0 0.0
2015-Mar-23 15:34N 49°29' E 000°07'  

Dump ship's entire track history